createdAt,value
2023-04-12T00:00:42.621Z,94543.00
2023-04-12T00:01:42.644Z,94538.00
2023-04-12T00:02:42.897Z,94539.00
2023-04-12T00:03:43.159Z,94538.00
2023-04-12T00:04:42.927Z,94536.00
2023-04-12T00:05:42.759Z,94532.00
2023-04-12T00:06:42.718Z,94532.00
2023-04-12T00:07:42.934Z,94532.00
2023-04-12T00:08:42.813Z,94526.00
2023-04-12T00:09:42.900Z,94528.00
2023-04-12T00:10:42.816Z,94526.00
2023-04-12T00:11:42.901Z,94526.00
2023-04-12T00:12:42.907Z,94524.00
2023-04-12T00:13:42.907Z,94518.00
2023-04-12T00:14:42.930Z,94520.00
2023-04-12T00:15:43.024Z,94520.00
2023-04-12T00:16:42.994Z,94520.00
2023-04-12T00:17:43.138Z,94520.00
2023-04-12T00:18:43.389Z,94514.00
2023-04-12T00:19:43.024Z,94510.00
2023-04-12T00:20:43.069Z,94508.00
2023-04-12T00:21:43.072Z,94506.00
2023-04-12T00:22:43.140Z,94506.00
2023-04-12T00:23:43.137Z,94504.00
2023-04-12T00:24:43.199Z,94502.00
2023-04-12T00:25:43.241Z,94500.00
2023-04-12T00:26:43.321Z,94500.00
2023-04-12T00:27:43.251Z,94496.00
2023-04-12T00:28:43.325Z,94498.00
2023-04-12T00:29:43.293Z,94496.00
2023-04-12T00:30:43.339Z,94494.00
2023-04-12T00:31:43.527Z,94494.00
2023-04-12T00:32:43.443Z,94494.00
2023-04-12T00:33:43.439Z,94498.00
2023-04-12T00:34:43.432Z,94494.00
2023-04-12T00:35:43.479Z,94496.00
2023-04-12T00:36:43.493Z,94496.00
2023-04-12T00:37:43.558Z,94494.00
2023-04-12T00:38:43.533Z,94492.00
2023-04-12T00:39:43.601Z,94491.00
2023-04-12T00:40:43.612Z,94489.00
2023-04-12T00:41:43.625Z,94489.00
2023-04-12T00:42:43.678Z,94489.00
2023-04-12T00:43:43.730Z,94489.00
2023-04-12T00:44:43.732Z,94491.00
2023-04-12T00:45:43.767Z,94489.00
2023-04-12T00:46:43.793Z,94487.00
2023-04-12T00:47:43.926Z,94489.00
2023-04-12T00:48:43.821Z,94487.00
2023-04-12T00:49:43.827Z,94487.00
2023-04-12T00:50:43.934Z,94485.00
2023-04-12T00:51:43.878Z,94485.00
2023-04-12T00:52:43.924Z,94483.00
2023-04-12T00:53:44.003Z,94479.00
2023-04-12T00:54:43.989Z,94481.00
2023-04-12T00:55:44.008Z,94479.00
2023-04-12T00:56:44.027Z,94481.00
2023-04-12T00:57:44.033Z,94483.00
2023-04-12T00:58:44.101Z,94479.00
2023-04-12T00:59:44.142Z,94477.00
2023-04-12T01:00:44.269Z,94477.00
2023-04-12T01:01:44.244Z,94477.00
2023-04-12T01:02:44.376Z,94475.00
2023-04-12T01:03:44.303Z,94471.00
2023-04-12T01:04:44.257Z,94473.00
2023-04-12T01:05:44.290Z,94471.00
2023-04-12T01:06:44.300Z,94471.00
2023-04-12T01:07:44.379Z,94471.00
2023-04-12T01:08:44.362Z,94473.00
2023-04-12T01:09:44.422Z,94473.00
2023-04-12T01:10:44.428Z,94471.00
2023-04-12T01:11:44.444Z,94469.00
2023-04-12T01:12:44.459Z,94467.00
2023-04-12T01:13:44.497Z,94465.00
2023-04-12T01:14:44.482Z,94465.00
2023-04-12T01:15:44.537Z,94465.00
2023-04-12T01:16:44.680Z,94463.00
2023-04-12T01:17:44.612Z,94463.00
2023-04-12T01:18:44.645Z,94461.00
2023-04-12T01:19:44.660Z,94461.00
2023-04-12T01:20:44.720Z,94459.00
2023-04-12T01:21:44.707Z,94457.00
2023-04-12T01:22:44.720Z,94457.00
2023-04-12T01:23:44.830Z,94455.00
2023-04-12T01:24:44.792Z,94453.00
2023-04-12T01:25:44.863Z,94453.00
2023-04-12T01:26:44.837Z,94453.00
2023-04-12T01:27:44.898Z,94451.00
2023-04-12T01:28:44.874Z,94449.00
2023-04-12T01:29:44.963Z,94449.00
2023-04-12T01:30:44.968Z,94445.00
2023-04-12T01:31:44.993Z,94443.00
2023-04-12T01:32:45.024Z,94441.00
2023-04-12T01:33:44.999Z,94437.00
2023-04-12T01:34:45.069Z,94437.00
2023-04-12T01:35:45.146Z,94434.00
2023-04-12T01:36:45.066Z,94434.00
2023-04-12T01:37:45.123Z,94434.00
2023-04-12T01:38:45.136Z,94432.00
2023-04-12T01:39:45.132Z,94428.00
2023-04-12T01:40:45.171Z,94434.00
2023-04-12T01:41:45.177Z,94432.00
2023-04-12T01:42:45.176Z,94428.00
2023-04-12T01:43:45.298Z,94428.00
2023-04-12T01:44:45.270Z,94426.00
2023-04-12T01:45:45.318Z,94422.00
2023-04-12T01:46:45.315Z,94424.00
2023-04-12T01:47:45.384Z,94428.00
2023-04-12T01:48:45.331Z,94426.00
2023-04-12T01:49:45.334Z,94430.00
2023-04-12T01:50:45.426Z,94428.00
2023-04-12T01:51:45.420Z,94428.00
2023-04-12T01:52:45.479Z,94426.00
2023-04-12T01:53:45.505Z,94426.00
2023-04-12T01:54:45.492Z,94424.00
2023-04-12T01:55:45.525Z,94426.00
2023-04-12T01:56:45.579Z,94426.00
2023-04-12T01:57:45.563Z,94426.00
2023-04-12T01:58:45.632Z,94424.00
2023-04-12T01:59:45.693Z,94426.00
2023-04-12T02:00:45.732Z,94426.00
2023-04-12T02:01:45.740Z,94424.00
2023-04-12T02:02:45.821Z,94424.00
2023-04-12T02:03:45.824Z,94424.00
2023-04-12T02:04:45.825Z,94424.00
2023-04-12T02:05:45.886Z,94424.00
2023-04-12T02:06:45.917Z,94422.00
2023-04-12T02:07:45.965Z,94424.00
2023-04-12T02:08:45.942Z,94420.00
2023-04-12T02:09:45.964Z,94422.00
2023-04-12T02:10:46.022Z,94420.00
2023-04-12T02:11:46.042Z,94422.00
2023-04-12T02:12:46.077Z,94422.00
2023-04-12T02:13:46.103Z,94422.00
2023-04-12T02:14:46.131Z,94424.00
2023-04-12T02:15:46.214Z,94422.00
2023-04-12T02:16:46.248Z,94422.00
2023-04-12T02:17:46.246Z,94422.00
2023-04-12T02:18:46.261Z,94422.00
2023-04-12T02:19:46.290Z,94422.00
2023-04-12T02:20:46.337Z,94422.00
2023-04-12T02:21:46.341Z,94422.00
2023-04-12T02:22:46.407Z,94424.00
2023-04-12T02:23:46.463Z,94426.00
2023-04-12T02:24:46.433Z,94424.00
2023-04-12T02:25:46.478Z,94426.00
2023-04-12T02:26:46.491Z,94426.00
2023-04-12T02:27:46.535Z,94422.00
2023-04-12T02:28:46.555Z,94424.00
2023-04-12T02:29:46.603Z,94424.00
2023-04-12T02:30:46.730Z,94422.00
2023-04-12T02:31:46.755Z,94428.00
2023-04-12T02:32:46.732Z,94426.00
2023-04-12T02:33:46.759Z,94430.00
2023-04-12T02:34:46.741Z,94426.00
2023-04-12T02:35:46.868Z,94428.00
2023-04-12T02:36:46.873Z,94428.00
2023-04-12T02:37:46.861Z,94428.00
2023-04-12T02:38:46.892Z,94432.00
2023-04-12T02:39:46.953Z,94430.00
2023-04-12T02:40:46.938Z,94430.00
2023-04-12T02:41:47.004Z,94432.00
2023-04-12T02:42:46.962Z,94434.00
2023-04-12T02:43:46.994Z,94434.00
2023-04-12T02:44:47.045Z,94434.00
2023-04-12T02:45:47.158Z,94436.00
2023-04-12T02:46:47.136Z,94436.00
2023-04-12T02:47:47.174Z,94434.00
2023-04-12T02:48:47.171Z,94434.00
2023-04-12T02:49:47.226Z,94434.00
2023-04-12T02:50:47.243Z,94434.00
2023-04-12T02:51:47.261Z,94432.00
2023-04-12T02:52:47.278Z,94432.00
2023-04-12T02:53:47.330Z,94432.00
2023-04-12T02:54:47.403Z,94434.00
2023-04-12T02:55:47.406Z,94434.00
2023-04-12T02:56:47.430Z,94436.00
2023-04-12T02:57:47.493Z,94434.00
2023-04-12T02:58:47.470Z,94434.00
2023-04-12T02:59:47.514Z,94430.00
2023-04-12T03:00:47.522Z,94430.00
2023-04-12T03:01:47.611Z,94428.00
2023-04-12T03:02:47.685Z,94428.00
2023-04-12T03:03:47.790Z,94432.00
2023-04-12T03:04:47.656Z,94430.00
2023-04-12T03:05:47.708Z,94430.00
2023-04-12T03:06:47.707Z,94428.00
2023-04-12T03:07:47.779Z,94428.00
2023-04-12T03:08:47.787Z,94428.00
2023-04-12T03:09:47.875Z,94424.00
2023-04-12T03:10:47.972Z,94426.00
2023-04-12T03:11:47.910Z,94428.00
2023-04-12T03:12:47.996Z,94426.00
2023-04-12T03:13:47.984Z,94424.00
2023-04-12T03:14:47.987Z,94424.00
2023-04-12T03:15:48.122Z,94422.00
2023-04-12T03:16:48.062Z,94424.00
2023-04-12T03:17:48.137Z,94422.00
2023-04-12T03:18:48.114Z,94422.00
2023-04-12T03:19:48.162Z,94422.00
2023-04-12T03:20:48.166Z,94422.00
2023-04-12T03:21:48.234Z,94424.00
2023-04-12T03:22:48.285Z,94424.00
2023-04-12T03:23:48.296Z,94422.00
2023-04-12T03:24:48.341Z,94420.00
2023-04-12T03:25:48.422Z,94420.00
2023-04-12T03:26:48.418Z,94420.00
2023-04-12T03:27:48.462Z,94420.00
2023-04-12T03:28:48.499Z,94420.00
2023-04-12T03:29:48.541Z,94418.00
2023-04-12T03:30:48.611Z,94418.00
2023-04-12T03:31:48.617Z,94416.00
2023-04-12T03:32:48.681Z,94416.00
2023-04-12T03:33:48.779Z,94418.00
2023-04-12T03:34:48.745Z,94420.00
2023-04-12T03:35:48.802Z,94416.00
2023-04-12T03:36:48.861Z,94422.00
2023-04-12T03:37:48.898Z,94418.00
2023-04-12T03:38:48.920Z,94424.00
2023-04-12T03:39:48.922Z,94416.00
2023-04-12T03:40:48.983Z,94424.00
2023-04-12T03:41:49.042Z,94422.00
2023-04-12T03:42:49.047Z,94422.00
2023-04-12T03:43:49.094Z,94420.00
2023-04-12T03:44:49.091Z,94418.00
2023-04-12T03:45:49.159Z,94420.00
2023-04-12T03:46:49.448Z,94416.00
2023-04-12T03:47:49.286Z,94416.00
2023-04-12T03:48:49.376Z,94416.00
2023-04-12T03:50:05.119Z,94408.00
2023-04-12T03:50:50.537Z,94408.00
2023-04-12T03:51:49.295Z,94414.00
2023-04-12T03:52:49.317Z,94408.00
2023-04-12T03:53:49.326Z,94408.00
2023-04-12T03:54:49.441Z,94404.00
2023-04-12T03:55:49.332Z,94402.00
2023-04-12T03:56:49.292Z,94402.00
2023-04-12T03:57:49.260Z,94402.00
2023-04-12T03:58:49.276Z,94398.00
2023-04-12T03:59:49.267Z,94398.00
2023-04-12T04:00:49.227Z,94400.00
2023-04-12T04:01:49.351Z,94400.00
2023-04-12T04:02:49.389Z,94400.00
2023-04-12T04:03:49.384Z,94400.00
2023-04-12T04:04:49.351Z,94400.00
2023-04-12T04:05:49.348Z,94402.00
2023-04-12T04:06:49.712Z,94404.00
2023-04-12T04:07:49.416Z,94406.00
2023-04-12T04:08:49.464Z,94402.00
2023-04-12T04:09:49.533Z,94402.00
2023-04-12T04:10:49.547Z,94400.00
2023-04-12T04:11:49.592Z,94400.00
2023-04-12T04:12:49.608Z,94398.00
2023-04-12T04:13:49.686Z,94398.00
2023-04-12T04:14:49.668Z,94396.00
2023-04-12T04:15:49.737Z,94398.00
2023-04-12T04:16:50.030Z,94398.00
2023-04-12T04:17:49.779Z,94396.00
2023-04-12T04:18:49.852Z,94398.00
2023-04-12T04:19:49.870Z,94398.00
2023-04-12T04:20:49.865Z,94396.00
2023-04-12T04:21:50.052Z,94398.00
2023-04-12T04:22:49.959Z,94394.00
2023-04-12T04:23:50.042Z,94394.00
2023-04-12T04:24:50.047Z,94392.00
2023-04-12T04:25:50.163Z,94390.00
2023-04-12T04:26:50.159Z,94392.00
2023-04-12T04:27:50.149Z,94389.00
2023-04-12T04:28:50.340Z,94389.00
2023-04-12T04:29:50.286Z,94383.00
2023-04-12T04:30:50.292Z,94385.00
2023-04-12T04:31:50.458Z,94383.00
2023-04-12T04:32:50.473Z,94381.00
2023-04-12T04:33:50.425Z,94381.00
2023-04-12T04:34:50.456Z,94383.00
2023-04-12T04:35:50.575Z,94379.00
2023-04-12T04:36:50.544Z,94377.00
2023-04-12T04:37:50.590Z,94375.00
2023-04-12T04:38:50.650Z,94375.00
2023-04-12T04:39:50.653Z,94375.00
2023-04-12T04:40:50.678Z,94375.00
2023-04-12T04:41:50.779Z,94375.00
2023-04-12T04:42:50.790Z,94367.00
2023-04-12T04:43:50.792Z,94367.00
2023-04-12T04:44:50.838Z,94367.00
2023-04-12T04:45:50.980Z,94365.00
2023-04-12T04:46:50.910Z,94365.00
2023-04-12T04:47:51.028Z,94363.00
2023-04-12T04:48:51.023Z,94365.00
2023-04-12T04:49:51.039Z,94365.00
2023-04-12T04:50:51.151Z,94365.00
2023-04-12T04:51:51.117Z,94365.00
2023-04-12T04:52:51.158Z,94363.00
2023-04-12T04:53:51.156Z,94361.00
2023-04-12T04:54:51.214Z,94363.00
2023-04-12T04:55:51.382Z,94361.00
2023-04-12T04:56:51.281Z,94361.00
2023-04-12T04:57:51.404Z,94359.00
2023-04-12T04:58:51.422Z,94355.00
2023-04-12T04:59:51.418Z,94359.00
2023-04-12T05:00:51.584Z,94359.00
2023-04-12T05:01:51.598Z,94355.00
2023-04-12T05:02:51.707Z,94355.00
2023-04-12T05:03:51.917Z,94357.00
2023-04-12T05:04:51.658Z,94363.00
2023-04-12T05:05:51.716Z,94361.00
2023-04-12T05:06:51.839Z,94363.00
2023-04-12T05:07:51.872Z,94363.00
2023-04-12T05:08:51.869Z,94365.00
2023-04-12T05:09:51.895Z,94363.00
2023-04-12T05:10:51.932Z,94363.00
2023-04-12T05:11:51.949Z,94363.00
2023-04-12T05:12:52.011Z,94363.00
2023-04-12T05:13:52.025Z,94365.00
2023-04-12T05:14:52.110Z,94365.00
2023-04-12T05:15:52.096Z,94363.00
2023-04-12T05:16:52.181Z,94361.00
2023-04-12T05:17:52.284Z,94357.00
2023-04-12T05:18:52.260Z,94357.00
2023-04-12T05:19:52.367Z,94357.00
2023-04-12T05:20:52.266Z,94357.00
2023-04-12T05:21:52.295Z,94359.00
2023-04-12T05:22:52.394Z,94359.00
2023-04-12T05:23:52.394Z,94359.00
2023-04-12T05:24:52.501Z,94359.00
2023-04-12T05:25:52.505Z,94355.00
2023-04-12T05:26:52.513Z,94361.00
2023-04-12T05:27:52.624Z,94357.00
2023-04-12T05:28:52.727Z,94357.00
2023-04-12T05:29:52.616Z,94357.00
2023-04-12T05:30:52.812Z,94351.00
2023-04-12T05:31:52.757Z,94353.00
2023-04-12T05:32:52.845Z,94345.00
2023-04-12T05:33:52.765Z,94345.00
2023-04-12T05:34:52.816Z,94345.00
2023-04-12T05:35:53.046Z,94344.00
2023-04-12T05:36:52.896Z,94345.00
2023-04-12T05:37:52.934Z,94340.00
2023-04-12T05:38:52.936Z,94342.00
2023-04-12T05:39:53.016Z,94344.00
2023-04-12T05:40:53.237Z,94340.00
2023-04-12T05:41:53.052Z,94344.00
2023-04-12T05:42:53.142Z,94342.00
2023-04-12T05:43:53.082Z,94344.00
2023-04-12T05:44:53.194Z,94344.00
2023-04-12T05:45:53.402Z,94351.00
2023-04-12T05:46:53.171Z,94345.00
2023-04-12T05:47:53.328Z,94340.00
2023-04-12T05:48:53.212Z,94340.00
2023-04-12T05:49:53.201Z,94334.00
2023-04-12T05:50:53.227Z,94332.00
2023-04-12T05:51:53.337Z,94332.00
2023-04-12T05:52:53.564Z,94334.00
2023-04-12T05:53:53.413Z,94328.00
2023-04-12T05:54:53.468Z,94326.00
2023-04-12T05:55:53.452Z,94328.00
2023-04-12T05:56:53.450Z,94326.00
2023-04-12T05:57:53.444Z,94324.00
2023-04-12T05:58:53.472Z,94320.00
2023-04-12T05:59:53.528Z,94320.00
2023-04-12T06:00:53.570Z,94322.00
2023-04-12T06:01:53.789Z,94320.00
2023-04-12T06:02:53.737Z,94318.00
2023-04-12T06:03:53.864Z,94314.00
2023-04-12T06:04:54.060Z,94310.00
2023-04-12T06:05:53.878Z,94314.00
2023-04-12T06:06:53.929Z,94312.00
2023-04-12T06:07:53.925Z,94310.00
2023-04-12T06:08:53.951Z,94306.00
2023-04-12T06:09:53.975Z,94308.00
2023-04-12T06:10:53.981Z,94308.00
2023-04-12T06:11:53.997Z,94308.00
2023-04-12T06:12:54.065Z,94306.00
2023-04-12T06:13:54.076Z,94302.00
2023-04-12T06:14:54.090Z,94306.00
2023-04-12T06:15:54.170Z,94308.00
2023-04-12T06:16:54.092Z,94302.00
2023-04-12T06:17:54.169Z,94302.00
2023-04-12T06:18:54.096Z,94302.00
2023-04-12T06:19:54.115Z,94300.00
2023-04-12T06:20:54.122Z,94296.00
2023-04-12T06:21:54.121Z,94292.00
2023-04-12T06:22:54.129Z,94292.00
2023-04-12T06:23:57.106Z,94292.00
2023-04-12T06:24:54.163Z,94294.00
2023-04-12T06:25:54.154Z,94287.00
2023-04-12T06:26:56.109Z,94287.00
2023-04-12T06:27:54.123Z,94287.00
2023-04-12T06:28:54.240Z,94287.00
2023-04-12T06:29:54.100Z,94283.00
2023-04-12T06:30:54.128Z,94281.00
2023-04-12T06:31:54.082Z,94279.00
2023-04-12T06:32:54.144Z,94281.00
2023-04-12T06:33:54.047Z,94275.00
2023-04-12T06:34:54.124Z,94277.00
2023-04-12T06:35:54.090Z,94271.00
2023-04-12T06:36:54.064Z,94273.00
2023-04-12T06:37:54.018Z,94273.00
2023-04-12T06:38:54.287Z,94275.00
2023-04-12T06:39:54.029Z,94273.00
2023-04-12T06:40:54.141Z,94269.00
2023-04-12T06:41:54.047Z,94273.00
2023-04-12T06:42:54.024Z,94267.00
2023-04-12T06:43:53.984Z,94269.00
2023-04-12T06:44:54.003Z,94267.00
2023-04-12T06:45:54.082Z,94263.00
2023-04-12T06:46:54.155Z,94269.00
2023-04-12T06:47:54.221Z,94269.00
2023-04-12T06:48:54.211Z,94271.00
2023-04-12T06:49:55.584Z,94267.00
2023-04-12T06:50:54.307Z,94265.00
2023-04-12T06:51:54.419Z,94263.00
2023-04-12T06:52:54.476Z,94263.00
2023-04-12T06:53:54.367Z,94263.00
2023-04-12T06:54:54.449Z,94261.00
2023-04-12T06:55:54.438Z,94257.00
2023-04-12T06:56:54.469Z,94259.00
2023-04-12T06:57:54.430Z,94257.00
2023-04-12T06:58:54.462Z,94257.00
2023-04-12T06:59:54.476Z,94253.00
2023-04-12T07:00:54.525Z,94253.00
2023-04-12T07:01:54.536Z,94251.00
2023-04-12T07:02:54.670Z,94251.00
2023-04-12T07:03:54.556Z,94249.00
2023-04-12T07:04:54.519Z,94253.00
2023-04-12T07:05:54.629Z,94253.00
2023-04-12T07:06:54.928Z,94245.00
2023-04-12T07:07:54.877Z,94243.00
2023-04-12T07:08:55.016Z,94242.00
2023-04-12T07:09:54.659Z,94242.00
2023-04-12T07:10:54.593Z,94245.00
2023-04-12T07:11:54.600Z,94245.00
2023-04-12T07:12:54.609Z,94243.00
2023-04-12T07:13:54.594Z,94242.00
2023-04-12T07:14:54.622Z,94263.00
2023-04-12T07:15:54.581Z,94242.00
2023-04-12T07:16:54.743Z,94242.00
2023-04-12T07:17:54.665Z,94236.00
2023-04-12T07:18:54.718Z,94234.00
2023-04-12T07:19:54.688Z,94236.00
2023-04-12T07:20:54.747Z,94236.00
2023-04-12T07:21:54.855Z,94238.00
2023-04-12T07:22:54.971Z,94232.00
2023-04-12T07:23:54.925Z,94228.00
2023-04-12T07:24:55.055Z,94228.00
2023-04-12T07:25:55.029Z,94226.00
2023-04-12T07:26:55.080Z,94222.00
2023-04-12T07:27:55.137Z,94222.00
2023-04-12T07:28:55.367Z,94218.00
2023-04-12T07:29:55.293Z,94214.00
2023-04-12T07:30:55.287Z,94216.00
2023-04-12T07:31:55.334Z,94214.00
2023-04-12T07:33:00.229Z,94212.00
2023-04-12T07:33:56.466Z,94212.00
2023-04-12T07:34:55.346Z,94216.00
2023-04-12T07:35:55.373Z,94224.00
2023-04-12T07:36:55.346Z,94220.00
2023-04-12T07:37:55.356Z,94220.00
2023-04-12T07:38:55.880Z,94214.00
2023-04-12T07:39:55.427Z,94214.00
2023-04-12T07:40:55.414Z,94214.00
2023-04-12T07:41:55.421Z,94218.00
2023-04-12T07:42:55.490Z,94212.00
2023-04-12T07:43:55.591Z,94214.00
2023-04-12T07:44:55.581Z,94212.00
2023-04-12T07:45:55.638Z,94216.00
2023-04-12T07:46:55.636Z,94212.00
2023-04-12T07:47:55.720Z,94216.00
2023-04-12T07:48:55.859Z,94214.00
2023-04-12T07:49:55.676Z,94208.00
2023-04-12T07:50:55.640Z,94206.00
2023-04-12T07:51:55.659Z,94208.00
2023-04-12T07:52:55.730Z,94204.00
2023-04-12T07:53:55.963Z,94206.00
2023-04-12T07:54:55.719Z,94208.00
2023-04-12T07:55:55.787Z,94208.00
2023-04-12T07:56:55.860Z,94208.00
2023-04-12T07:57:55.906Z,94208.00
2023-04-12T07:58:56.223Z,94206.00
2023-04-12T07:59:56.009Z,94208.00
2023-04-12T08:00:56.076Z,94204.00
2023-04-12T08:01:56.194Z,94202.00
2023-04-12T08:02:56.338Z,94204.00
2023-04-12T08:03:56.614Z,94202.00
2023-04-12T08:04:56.284Z,94200.00
2023-04-12T08:05:56.392Z,94204.00
2023-04-12T08:06:56.424Z,94202.00
2023-04-12T08:07:56.489Z,94204.00
2023-04-12T08:08:56.539Z,94208.00
2023-04-12T08:09:56.538Z,94204.00
2023-04-12T08:10:56.620Z,94206.00
2023-04-12T08:11:56.661Z,94202.00
2023-04-12T08:12:56.657Z,94200.00
2023-04-12T08:13:56.937Z,94202.00
2023-04-12T08:14:56.763Z,94206.00
2023-04-12T08:15:56.946Z,94208.00
2023-04-12T08:16:56.862Z,94214.00
2023-04-12T08:17:56.918Z,94212.00
2023-04-12T08:18:56.958Z,94210.00
2023-04-12T08:19:57.016Z,94210.00
2023-04-12T08:20:57.170Z,94208.00
2023-04-12T08:21:57.118Z,94214.00
2023-04-12T08:22:57.025Z,94218.00
2023-04-12T08:23:57.472Z,94226.00
2023-04-12T08:24:57.132Z,94226.00
2023-04-12T08:25:57.222Z,94222.00
2023-04-12T08:26:57.226Z,94220.00
2023-04-12T08:27:57.230Z,94218.00
2023-04-12T08:28:57.275Z,94218.00
2023-04-12T08:29:57.285Z,94216.00
2023-04-12T08:30:57.410Z,94220.00
2023-04-12T08:31:57.405Z,94220.00
2023-04-12T08:32:57.446Z,94226.00
2023-04-12T08:33:57.596Z,94222.00
2023-04-12T08:34:57.421Z,94224.00
2023-04-12T08:35:57.498Z,94218.00
2023-04-12T08:36:57.502Z,94218.00
2023-04-12T08:37:57.556Z,94214.00
2023-04-12T08:38:57.584Z,94214.00
2023-04-12T08:39:57.600Z,94214.00
2023-04-12T08:40:57.645Z,94214.00
2023-04-12T08:41:57.734Z,94202.00
2023-04-12T08:42:57.741Z,94195.00
2023-04-12T08:43:58.006Z,94191.00
2023-04-12T08:44:57.851Z,94183.00
2023-04-12T08:45:57.911Z,94183.00
2023-04-12T08:46:58.010Z,94179.00
2023-04-12T08:47:58.090Z,94177.00
2023-04-12T08:48:58.008Z,94179.00
2023-04-12T08:49:58.027Z,94179.00
2023-04-12T08:50:58.155Z,94181.00
2023-04-12T08:51:58.207Z,94181.00
2023-04-12T08:52:58.265Z,94177.00
2023-04-12T08:53:58.448Z,94175.00
2023-04-12T08:54:58.342Z,94173.00
2023-04-12T08:55:58.438Z,94169.00
2023-04-12T08:56:58.436Z,94169.00
2023-04-12T08:57:58.521Z,94167.00
2023-04-12T08:58:58.704Z,94165.00
2023-04-12T08:59:58.538Z,94161.00
2023-04-12T09:00:58.584Z,94161.00
2023-04-12T09:01:58.680Z,94159.00
2023-04-12T09:02:58.704Z,94159.00
2023-04-12T09:03:59.478Z,94161.00
2023-04-12T09:04:59.178Z,94161.00
2023-04-12T09:05:58.663Z,94163.00
2023-04-12T09:06:58.644Z,94159.00
2023-04-12T09:07:58.726Z,94161.00
2023-04-12T09:08:59.185Z,94163.00
2023-04-12T09:09:58.664Z,94163.00
2023-04-12T09:10:58.645Z,94161.00
2023-04-12T09:11:58.718Z,94161.00
2023-04-12T09:12:58.787Z,94157.00
2023-04-12T09:13:59.158Z,94159.00
2023-04-12T09:14:58.875Z,94155.00
2023-04-12T09:15:58.931Z,94149.00
2023-04-12T09:16:59.103Z,94149.00
2023-04-12T09:17:59.073Z,94149.00
2023-04-12T09:18:59.270Z,94147.00
2023-04-12T09:19:59.145Z,94142.00
2023-04-12T09:20:59.210Z,94142.00
2023-04-12T09:21:59.246Z,94142.00
2023-04-12T09:22:59.357Z,94140.00
2023-04-12T09:23:59.477Z,94140.00
2023-04-12T09:24:59.460Z,94136.00
2023-04-12T09:25:59.458Z,94130.00
2023-04-12T09:26:59.534Z,94126.00
2023-04-12T09:27:59.576Z,94124.00
2023-04-12T09:28:59.666Z,94122.00
2023-04-12T09:30:00.134Z,94126.00
2023-04-12T09:30:59.759Z,94122.00
2023-04-12T09:31:59.891Z,94126.00
2023-04-12T09:32:59.889Z,94128.00
2023-04-12T09:33:59.912Z,94126.00
2023-04-12T09:35:00.171Z,94120.00
2023-04-12T09:36:00.044Z,94122.00
2023-04-12T09:36:59.960Z,94120.00
2023-04-12T09:37:59.963Z,94118.00
2023-04-12T09:38:59.981Z,94104.00
2023-04-12T09:39:59.998Z,94100.00
2023-04-12T09:41:00.098Z,94100.00
2023-04-12T09:41:59.989Z,94100.00
2023-04-12T09:42:59.991Z,94098.00
2023-04-12T09:44:00.365Z,94096.00
2023-04-12T09:45:00.005Z,94093.00
2023-04-12T09:46:00.024Z,94091.00
2023-04-12T09:47:00.195Z,94087.00
2023-04-12T09:48:00.093Z,94089.00
2023-04-12T09:49:00.051Z,94085.00
2023-04-12T09:50:00.092Z,94083.00
2023-04-12T09:51:00.125Z,94085.00
2023-04-12T09:52:00.155Z,94083.00
2023-04-12T09:53:00.135Z,94079.00
2023-04-12T09:54:00.173Z,94075.00
2023-04-12T09:55:00.129Z,94073.00
2023-04-12T09:56:00.076Z,94075.00
2023-04-12T09:57:00.140Z,94071.00
2023-04-12T09:58:00.149Z,94069.00
2023-04-12T09:59:00.151Z,94067.00
2023-04-12T10:00:00.220Z,94067.00
2023-04-12T10:01:00.099Z,94057.00
2023-04-12T10:02:00.279Z,94051.00
2023-04-12T10:03:00.209Z,94049.00
2023-04-12T10:04:00.494Z,94046.00
2023-04-12T10:05:00.253Z,94046.00
2023-04-12T10:06:00.163Z,94040.00
2023-04-12T10:07:00.069Z,94038.00
2023-04-12T10:08:00.177Z,94030.00
2023-04-12T10:09:00.163Z,94028.00
2023-04-12T10:10:00.161Z,94024.00
2023-04-12T10:11:00.173Z,94022.00
2023-04-12T10:12:00.168Z,94016.00
2023-04-12T10:13:00.124Z,94016.00
2023-04-12T10:14:00.310Z,94014.00
2023-04-12T10:15:00.185Z,94012.00
2023-04-12T10:16:00.202Z,94008.00
2023-04-12T10:17:00.152Z,94004.00
2023-04-12T10:18:00.219Z,94004.00
2023-04-12T10:19:00.289Z,93999.00
2023-04-12T10:20:00.164Z,93997.00
2023-04-12T10:21:00.144Z,93993.00
2023-04-12T10:22:00.172Z,93993.00
2023-04-12T10:23:00.166Z,93991.00
2023-04-12T10:24:00.240Z,93987.00
2023-04-12T10:25:00.211Z,93981.00
2023-04-12T10:26:00.154Z,93981.00
2023-04-12T10:27:00.194Z,93985.00
2023-04-12T10:28:00.154Z,93981.00
2023-04-12T10:29:00.132Z,93981.00
2023-04-12T10:30:00.158Z,93977.00
2023-04-12T10:31:00.266Z,93971.00
2023-04-12T10:32:00.189Z,93973.00
2023-04-12T10:33:00.198Z,93977.00
2023-04-12T10:34:00.132Z,93975.00
2023-04-12T10:35:00.110Z,93973.00
2023-04-12T10:36:00.400Z,93967.00
2023-04-12T10:37:00.217Z,93963.00
2023-04-12T10:38:00.242Z,93959.00
2023-04-12T10:39:00.391Z,93957.00
2023-04-12T10:40:00.319Z,93961.00
2023-04-12T10:41:00.315Z,93959.00
2023-04-12T10:42:00.329Z,93959.00
2023-04-12T10:43:00.345Z,93959.00
2023-04-12T10:44:00.393Z,93957.00
2023-04-12T10:45:01.122Z,93957.00
2023-04-12T10:46:00.397Z,93957.00
2023-04-12T10:47:00.434Z,93951.00
2023-04-12T10:48:00.500Z,93951.00
2023-04-12T10:49:00.477Z,93955.00
2023-04-12T10:50:00.485Z,93949.00
2023-04-12T10:51:00.508Z,93946.00
2023-04-12T10:52:00.494Z,93949.00
2023-04-12T10:53:00.515Z,93946.00
2023-04-12T10:54:00.510Z,93942.00
2023-04-12T10:55:00.511Z,93940.00
2023-04-12T10:56:01.212Z,93936.00
2023-04-12T10:57:00.533Z,93928.00
2023-04-12T10:58:00.505Z,93926.00
2023-04-12T10:59:00.810Z,93924.00
2023-04-12T11:00:00.545Z,93920.00
2023-04-12T11:01:01.040Z,93918.00
2023-04-12T11:02:00.795Z,93922.00
2023-04-12T11:03:00.745Z,93918.00
2023-04-12T11:04:00.725Z,93916.00
2023-04-12T11:05:00.525Z,93918.00
2023-04-12T11:06:06.468Z,93914.00
2023-04-12T11:07:01.504Z,93908.00
2023-04-12T11:08:00.482Z,93904.00
2023-04-12T11:09:00.834Z,93899.00
2023-04-12T11:10:00.426Z,93897.00
2023-04-12T11:11:00.502Z,93893.00
2023-04-12T11:12:00.559Z,93889.00
2023-04-12T11:13:00.415Z,93885.00
2023-04-12T11:14:00.445Z,93885.00
2023-04-12T11:15:00.445Z,93885.00
2023-04-12T11:16:00.418Z,93883.00
2023-04-12T11:17:00.463Z,93885.00
2023-04-12T11:18:00.545Z,93881.00
2023-04-12T11:19:00.594Z,93881.00
2023-04-12T11:20:00.462Z,93883.00
2023-04-12T11:21:00.494Z,93877.00
2023-04-12T11:22:00.563Z,93875.00
2023-04-12T11:23:00.616Z,93871.00
2023-04-12T11:24:00.695Z,93867.00
2023-04-12T11:25:00.751Z,93861.00
2023-04-12T11:26:00.778Z,93861.00
2023-04-12T11:27:00.849Z,93852.00
2023-04-12T11:28:00.883Z,93852.00
2023-04-12T11:29:00.924Z,93848.00
2023-04-12T11:30:00.977Z,93842.00
2023-04-12T11:31:00.975Z,93838.00
2023-04-12T11:32:01.194Z,93836.00
2023-04-12T11:33:01.238Z,93834.00
2023-04-12T11:34:01.199Z,93832.00
2023-04-12T11:35:01.232Z,93832.00
2023-04-12T11:36:01.290Z,93828.00
2023-04-12T11:37:01.314Z,93824.00
2023-04-12T11:38:01.407Z,93816.00
2023-04-12T11:39:01.441Z,93822.00
2023-04-12T11:40:01.525Z,93818.00
2023-04-12T11:41:01.593Z,93816.00
2023-04-12T11:42:01.597Z,93810.00
2023-04-12T11:43:01.656Z,93807.00
2023-04-12T11:44:01.754Z,93805.00
2023-04-12T11:45:05.667Z,93799.00